Time;durP1;ratioP1;P1;durP2;ratioP2;P2;SDS_P1;SDS_P2;PMS_P1;PMS_P2;Temp;Humidity;BMP_temperature;BMP_pressure;BME280_temperature;BME280_humidity;BME280_pressure;Samples;Min_cycle;Max_cycle;Signal;HPM_P1;HPM_P2
2021/12/06 00:00:29;;;;;;;49.17;22.15;;;;;;;3.00;92.67;93681.44;5131386;27;20240;-73
2021/12/06 00:02:59;;;;;;;38.70;17.98;;;;;;;3.15;92.36;93666.88;5140886;27;20692;-73
2021/12/06 00:05:28;;;;;;;36.58;16.73;;;;;;;3.06;92.02;93674.06;5145585;27;20253;-73
2021/12/06 00:07:55;;;;;;;43.97;20.38;;;;;;;2.91;93.02;93685.13;5148123;27;20204;-73
2021/12/06 00:10:22;;;;;;;35.40;17.58;;;;;;;2.98;93.29;93682.84;5144802;27;20204;-73
2021/12/06 00:12:50;;;;;;;40.67;16.75;;;;;;;3.13;92.38;93655.72;5151177;27;20209;-73
2021/12/06 00:15:17;;;;;;;47.25;20.63;;;;;;;2.98;92.48;93667.59;5145302;27;20208;-73
2021/12/06 00:17:44;;;;;;;45.53;19.02;;;;;;;2.91;92.61;93661.06;5140831;27;20203;-73
2021/12/06 00:20:15;;;;;;;40.92;18.98;;;;;;;2.85;92.87;93669.22;5143682;27;20205;-73
2021/12/06 00:22:42;;;;;;;35.92;17.27;;;;;;;2.93;93.34;93669.56;5147641;27;20619;-73
2021/12/06 00:25:10;;;;;;;46.10;20.13;;;;;;;3.08;93.41;93682.59;5144661;27;20719;-73
2021/12/06 00:27:39;;;;;;;38.83;17.67;;;;;;;3.16;93.02;93684.53;5140724;27;20196;-74
2021/12/06 00:30:12;;;;;;;25.20;12.13;;;;;;;3.42;92.69;93685.47;5142514;27;20193;-74
2021/12/06 00:32:40;;;;;;;33.58;14.85;;;;;;;3.55;91.78;93708.72;5147873;27;20201;-73
2021/12/06 00:35:07;;;;;;;33.20;15.10;;;;;;;3.44;91.62;93696.69;5135046;27;20289;-73
2021/12/06 00:37:42;;;;;;;19.77;9.13;;;;;;;3.62;91.76;93710.19;5126743;27;20217;-73
2021/12/06 00:40:12;;;;;;;22.35;10.68;;;;;;;3.91;91.05;93678.34;5137576;27;20232;-73
2021/12/06 00:42:39;;;;;;;26.45;11.98;;;;;;;3.85;90.66;93690.28;5121519;27;20685;-73
2021/12/06 00:45:08;;;;;;;33.83;15.88;;;;;;;3.74;91.10;93699.69;5147797;27;20600;-73
2021/12/06 00:47:36;;;;;;;33.70;15.55;;;;;;;3.71;90.90;93705.66;5142955;27;20657;-73
2021/12/06 00:50:04;;;;;;;36.60;15.50;;;;;;;3.49;90.20;93717.19;5135136;27;20201;-74
2021/12/06 00:52:30;;;;;;;32.53;16.00;;;;;;;3.33;89.96;93706.06;5122940;27;20197;-74
2021/12/06 00:54:57;;;;;;;35.45;16.08;;;;;;;3.54;90.10;93693.78;5147324;27;20201;-73
2021/12/06 00:57:24;;;;;;;36.60;16.45;;;;;;;3.40;90.57;93698.41;5137869;27;20351;-74
2021/12/06 00:59:51;;;;;;;36.35;16.60;;;;;;;3.42;90.03;93698.88;5137363;27;20201;-74
2021/12/06 01:02:21;;;;;;;42.25;16.88;;;;;;;3.29;90.17;93704.28;5143234;27;20193;-73
2021/12/06 01:04:49;;;;;;;41.28;16.70;;;;;;;3.21;90.05;93705.81;5146696;27;20224;-74
2021/12/06 01:07:16;;;;;;;40.38;17.77;;;;;;;3.00;91.39;93686.78;5145596;27;20257;-74
2021/12/06 01:09:43;;;;;;;38.10;17.30;;;;;;;3.11;91.29;93693.47;5139861;27;20604;-74
2021/12/06 01:12:11;;;;;;;42.83;17.25;;;;;;;3.03;90.74;93685.38;5141647;27;20197;-74
2021/12/06 01:14:38;;;;;;;41.25;19.05;;;;;;;3.15;90.58;93680.25;5147006;27;20265;-73
2021/12/06 01:17:07;;;;;;;44.40;20.25;;;;;;;3.38;90.45;93678.38;5145928;27;20260;-73
2021/12/06 01:19:37;;;;;;;37.28;16.10;;;;;;;3.23;90.53;93690.25;5126824;27;20209;-74
2021/12/06 01:22:17;;;;;;;33.08;14.63;;;;;;;2.89;91.32;93695.34;5126605;27;20262;-73
2021/12/06 01:24:51;;;;;;;32.20;15.23;;;;;;;3.15;91.55;93712.38;5129118;27;20216;-74
2021/12/06 01:27:37;;;;;;;39.83;17.95;;;;;;;3.18;91.07;93693.03;5139293;27;20199;-73
2021/12/06 01:30:22;;;;;;;39.55;17.02;;;;;;;3.50;90.91;93690.13;5140990;27;20250;-74
2021/12/06 01:33:16;;;;;;;35.53;15.95;;;;;;;3.61;89.92;93687.16;5129489;27;20690;-73
2021/12/06 01:41:14;;;;;;;42.90;16.70;;;;;;;3.71;89.20;93670.84;5143088;27;20254;-72
2021/12/06 01:44:02;;;;;;;47.20;18.98;;;;;;;3.28;90.77;93681.31;5138780;27;20280;-72
2021/12/06 01:46:29;;;;;;;42.95;17.15;;;;;;;3.25;89.98;93650.59;5139444;27;20243;-73
2021/12/06 01:48:56;;;;;;;38.78;17.60;;;;;;;2.99;90.82;93646.97;5145677;27;20300;-72
2021/12/06 01:51:25;;;;;;;37.45;16.85;;;;;;;3.04;91.62;93676.25;5146403;27;20609;-72
2021/12/06 01:53:52;;;;;;;41.33;17.95;;;;;;;3.08;91.41;93653.16;5140178;27;20212;-72
2021/12/06 01:56:19;;;;;;;37.03;16.40;;;;;;;3.03;91.09;93637.22;5138046;27;20193;-71
2021/12/06 01:58:46;;;;;;;35.05;15.18;;;;;;;3.08;91.32;93642.47;5123340;27;20202;-72
2021/12/06 02:01:14;;;;;;;41.30;17.98;;;;;;;3.06;91.02;93636.63;5141049;27;20196;-72
2021/12/06 02:03:40;;;;;;;37.65;16.50;;;;;;;3.08;91.20;93639.78;5140942;27;20219;-71
2021/12/06 02:06:08;;;;;;;29.38;14.30;;;;;;;3.15;90.73;93634.78;5134574;27;20204;-72
2021/12/06 02:08:36;;;;;;;40.67;17.65;;;;;;;3.02;91.66;93651.69;5130080;27;20192;-72
2021/12/06 02:11:05;;;;;;;37.22;15.43;;;;;;;3.29;91.55;93654.22;5139041;27;20648;-73
2021/12/06 02:13:39;;;;;;;40.13;17.13;;;;;;;3.07;91.71;93632.84;5142487;27;20284;-73
2021/12/06 02:16:07;;;;;;;41.10;17.20;;;;;;;3.13;91.46;93659.19;5146219;27;20204;-72
2021/12/06 02:18:43;;;;;;;37.15;15.88;;;;;;;3.01;91.75;93644.75;5143383;27;20196;-72
2021/12/06 02:21:14;;;;;;;41.08;18.08;;;;;;;3.12;91.65;93656.81;5138959;27;20224;-72
2021/12/06 02:23:41;;;;;;;33.63;15.57;;;;;;;3.19;91.58;93667.88;5139459;27;20220;-73
2021/12/06 02:26:08;;;;;;;31.95;15.38;;;;;;;3.13;91.22;93669.09;5145607;27;20193;-72
2021/12/06 02:28:35;;;;;;;38.28;17.58;;;;;;;3.27;90.89;93658.34;5145394;27;20204;-73
2021/12/06 02:31:02;;;;;;;31.42;14.90;;;;;;;3.27;89.84;93652.97;5125228;27;20253;-73
2021/12/06 02:33:29;;;;;;;35.03;15.65;;;;;;;3.37;90.63;93653.50;5138735;27;20205;-73
2021/12/06 02:35:56;;;;;;;33.78;15.43;;;;;;;3.37;90.04;93642.00;5140558;27;20192;-72
2021/12/06 02:38:25;;;;;;;35.63;16.23;;;;;;;3.38;90.17;93635.56;5138620;27;20221;-73
2021/12/06 02:40:52;;;;;;;25.88;12.02;;;;;;;3.27;90.26;93635.03;5144215;27;20631;-72
2021/12/06 02:43:19;;;;;;;31.75;12.32;;;;;;;3.22;90.63;93635.16;5145557;27;20212;-72
2021/12/06 02:45:46;;;;;;;31.23;12.82;;;;;;;3.10;91.11;93635.72;5131356;27;20659;-73
2021/12/06 02:48:15;;;;;;;31.83;15.65;;;;;;;3.18;91.30;93640.31;5145336;27;20200;-72
2021/12/06 02:50:46;;;;;;;35.65;13.85;;;;;;;3.25;91.17;93639.91;5140762;27;20241;-73
2021/12/06 02:53:14;;;;;;;32.20;15.00;;;;;;;3.30;91.07;93642.44;5133088;27;20196;-73
2021/12/06 02:55:43;;;;;;;36.33;16.10;;;;;;;3.38;91.53;93639.03;5120616;28;20209;-73
2021/12/06 02:58:16;;;;;;;38.10;14.93;;;;;;;3.53;91.28;93632.50;5135994;27;20295;-73
2021/12/06 03:00:47;;;;;;;33.47;15.80;;;;;;;3.65;90.62;93626.56;5142407;27;20224;-73
2021/12/06 03:03:14;;;;;;;33.28;14.82;;;;;;;3.78;90.49;93637.19;5138249;27;20694;-73
2021/12/06 03:05:41;;;;;;;35.03;15.18;;;;;;;3.81;90.03;93625.84;5140307;27;20205;-73
2021/12/06 03:08:08;;;;;;;31.40;15.05;;;;;;;3.79;89.37;93627.25;5144993;27;20201;-73
2021/12/06 03:10:35;;;;;;;28.85;14.38;;;;;;;3.70;90.18;93623.72;5143326;27;20204;-73
2021/12/06 03:13:04;;;;;;;35.85;16.85;;;;;;;3.67;90.62;93629.72;5138327;27;20201;-72
2021/12/06 03:15:31;;;;;;;43.00;16.10;;;;;;;3.71;90.77;93626.09;5139396;27;20201;-72
2021/12/06 03:17:58;;;;;;;34.45;15.60;;;;;;;3.91;90.24;93630.13;5145367;27;20201;-74
2021/12/06 03:20:26;;;;;;;27.60;13.18;;;;;;;4.02;90.10;93625.28;5143913;27;20651;-72
2021/12/06 03:22:52;;;;;;;35.70;16.77;;;;;;;4.03;89.62;93627.66;5138448;27;20196;-73
2021/12/06 03:25:20;;;;;;;38.75;14.45;;;;;;;4.21;90.24;93626.59;5138783;27;20229;-73
2021/12/06 03:27:48;;;;;;;35.30;15.02;;;;;;;4.36;89.25;93629.94;5144937;27;20205;-73
2021/12/06 03:30:17;;;;;;;32.75;15.23;;;;;;;4.43;88.63;93619.53;5144604;27;20200;-74
2021/12/06 03:32:44;;;;;;;36.08;15.32;;;;;;;4.49;88.37;93632.47;5124520;27;20204;-73
2021/12/06 03:35:13;;;;;;;32.08;15.18;;;;;;;4.33;88.01;93625.19;5137722;27;20228;-73
2021/12/06 03:37:41;;;;;;;29.70;14.35;;;;;;;4.41;87.91;93621.72;5144428;27;20217;-74
2021/12/06 03:40:09;;;;;;;25.20;12.63;;;;;;;4.35;88.91;93606.91;5144607;27;20407;-74
2021/12/06 03:42:36;;;;;;;33.88;14.88;;;;;;;4.37;89.35;93615.44;5139690;27;20253;-73
2021/12/06 03:45:06;;;;;;;25.35;13.48;;;;;;;4.31;89.89;93605.94;5138244;27;20225;-73
2021/12/06 03:47:35;;;;;;;25.83;10.48;;;;;;;4.40;90.22;93612.09;5142777;27;20687;-73
2021/12/06 03:50:03;;;;;;;25.13;12.30;;;;;;;4.61;90.09;93610.41;5148656;27;20203;-73
2021/12/06 03:52:30;;;;;;;28.80;11.25;;;;;;;4.62;90.04;93598.56;5144381;27;20196;-73
2021/12/06 03:54:58;;;;;;;22.13;10.05;;;;;;;4.74;89.73;93604.09;5141583;27;20197;-73
2021/12/06 03:57:25;;;;;;;22.55;9.48;;;;;;;4.71;89.98;93609.28;5145912;27;20205;-73
2021/12/06 03:59:53;;;;;;;18.55;8.93;;;;;;;4.80;89.46;93613.53;5138485;27;20200;-74
2021/12/06 04:02:25;;;;;;;16.88;7.85;;;;;;;4.85;89.27;93613.41;5132293;27;20770;-74
2021/12/06 04:04:54;;;;;;;22.45;11.05;;;;;;;4.95;89.09;93612.28;5137960;27;20212;-73
2021/12/06 04:07:21;;;;;;;17.42;8.65;;;;;;;4.98;88.96;93617.81;5143095;27;20540;-73
2021/12/06 04:09:48;;;;;;;19.27;9.73;;;;;;;4.90;88.72;93599.81;5147851;27;20197;-74
2021/12/06 04:12:15;;;;;;;14.85;7.20;;;;;;;4.93;88.61;93601.06;5146983;27;20212;-74
2021/12/06 04:14:45;;;;;;;21.35;9.88;;;;;;;4.87;89.11;93611.19;5130046;27;20634;-73
2021/12/06 04:17:13;;;;;;;20.45;9.82;;;;;;;4.92;89.01;93619.06;5139511;27;20239;-73
2021/12/06 04:19:40;;;;;;;23.77;11.20;;;;;;;4.79;88.95;93621.91;5141122;27;20242;-73
2021/12/06 04:22:10;;;;;;;23.08;11.18;;;;;;;4.71;89.25;93588.63;5141449;27;20728;-73
2021/12/06 04:24:37;;;;;;;22.17;9.10;;;;;;;4.80;88.89;93591.28;5128552;27;20227;-73
2021/12/06 04:27:13;;;;;;;22.08;10.32;;;;;;;4.77;89.11;93603.47;5139889;27;20200;-73
2021/12/06 04:29:40;;;;;;;24.88;10.93;;;;;;;4.70;89.54;93597.78;5122471;27;20185;-73
2021/12/06 04:32:08;;;;;;;26.70;13.00;;;;;;;4.69;89.27;93606.91;5147848;27;20269;-73
2021/12/06 04:34:35;;;;;;;31.23;13.73;;;;;;;4.70;90.17;93611.19;5135191;27;20197;-73
2021/12/06 04:37:02;;;;;;;28.58;13.70;;;;;;;4.76;90.56;93617.97;5144964;27;20218;-73
2021/12/06 04:39:31;;;;;;;27.80;13.63;;;;;;;4.83;90.19;93622.84;5122998;27;20846;-72
2021/12/06 04:41:58;;;;;;;27.92;12.52;;;;;;;4.71;89.76;93601.25;5147248;27;20227;-72
2021/12/06 04:44:25;;;;;;;27.67;13.65;;;;;;;4.74;89.56;93612.13;5143820;27;20690;-72
2021/12/06 04:46:53;;;;;;;27.48;13.20;;;;;;;4.58;89.77;93611.03;5140315;27;20200;-74
2021/12/06 04:49:21;;;;;;;31.00;13.43;;;;;;;4.81;90.14;93620.50;5143759;27;20250;-73
2021/12/06 04:51:51;;;;;;;30.67;13.63;;;;;;;4.80;89.88;93613.53;5123964;27;20201;-73
2021/12/06 04:54:21;;;;;;;33.05;17.90;;;;;;;4.88;89.38;93615.44;5141587;27;20476;-73
2021/12/06 04:56:53;;;;;;;27.80;13.73;;;;;;;4.92;89.63;93618.31;5115238;27;20201;-73
2021/12/06 04:59:28;;;;;;;24.42;11.95;;;;;;;4.97;88.70;93620.81;5133389;27;20185;-73
2021/12/06 05:01:58;;;;;;;23.38;11.90;;;;;;;4.93;88.68;93615.28;5120336;27;20215;-73
2021/12/06 05:04:29;;;;;;;24.85;11.63;;;;;;;4.94;89.01;93614.16;5148040;27;20232;-74
2021/12/06 05:07:00;;;;;;;28.92;12.40;;;;;;;4.97;88.83;93616.22;5145311;27;20532;-73
2021/12/06 05:09:32;;;;;;;27.23;14.75;;;;;;;4.99;88.99;93608.66;5118402;27;20428;-72
2021/12/06 05:12:00;;;;;;;31.77;19.25;;;;;;;5.07;88.73;93622.38;5143265;27;20189;-74
2021/12/06 05:14:28;;;;;;;22.55;13.02;;;;;;;5.15;88.26;93618.91;5135539;27;20194;-74
2021/12/06 05:16:56;;;;;;;23.95;10.95;;;;;;;5.15;87.98;93625.06;5132351;27;20692;-73
2021/12/06 05:19:23;;;;;;;31.13;15.23;;;;;;;5.13;88.57;93627.25;5146487;27;20608;-73
2021/12/06 05:21:50;;;;;;;31.27;14.80;;;;;;;4.80;89.19;93640.38;5120032;27;20408;-73
2021/12/06 05:24:17;;;;;;;36.03;19.30;;;;;;;4.88;89.42;93639.59;5128127;27;20221;-73
2021/12/06 05:26:45;;;;;;;32.50;14.32;;;;;;;4.92;89.52;93637.84;5131780;27;20201;-73
2021/12/06 05:29:16;;;;;;;30.77;16.25;;;;;;;4.97;89.62;93643.06;5132528;27;20205;-73
2021/12/06 05:31:43;;;;;;;39.05;16.20;;;;;;;5.07;89.18;93644.63;5132353;27;20197;-73
2021/12/06 05:34:16;;;;;;;35.38;15.65;;;;;;;5.11;88.51;93639.41;5144490;27;20530;-74
2021/12/06 05:36:43;;;;;;;36.10;16.83;;;;;;;5.06;88.59;93628.88;5131108;27;20224;-74
2021/12/06 05:39:10;;;;;;;29.48;14.20;;;;;;;4.83;89.32;93617.50;5132485;27;20204;-74
2021/12/06 05:41:37;;;;;;;35.30;17.63;;;;;;;4.77;89.72;93622.25;5131540;27;20768;-74
2021/12/06 05:44:05;;;;;;;36.60;17.35;;;;;;;4.64;90.13;93623.19;5132447;27;20317;-74
2021/12/06 05:46:36;;;;;;;32.05;14.70;;;;;;;4.72;90.60;93622.38;5146500;27;20215;-73
2021/12/06 05:49:03;;;;;;;29.58;15.10;;;;;;;4.81;90.30;93615.13;5132531;27;20253;-74
2021/12/06 05:51:30;;;;;;;39.67;16.20;;;;;;;4.96;90.05;93617.31;5119508;27;20254;-74
2021/12/06 05:53:57;;;;;;;29.35;13.77;;;;;;;4.81;90.04;93620.50;5135979;27;20270;-74
2021/12/06 05:56:24;;;;;;;35.45;16.10;;;;;;;4.79;90.41;93628.06;5114705;27;20806;-74
2021/12/06 05:58:51;;;;;;;26.65;13.15;;;;;;;4.73;90.10;93637.38;5134696;27;20197;-73
2021/12/06 06:01:24;;;;;;;29.60;14.02;;;;;;;4.68;90.05;93626.78;5131552;27;20201;-73
2021/12/06 06:03:52;;;;;;;32.15;15.98;;;;;;;4.54;90.92;93628.84;5142637;27;20188;-74
2021/12/06 06:06:18;;;;;;;32.28;15.63;;;;;;;4.66;90.85;93650.47;5134541;27;20640;-74
2021/12/06 06:08:45;;;;;;;31.35;14.60;;;;;;;4.78;90.78;93645.28;5142670;27;20581;-74
2021/12/06 06:11:12;;;;;;;35.20;16.88;;;;;;;4.76;90.60;93634.06;5134350;27;20208;-74
2021/12/06 06:13:39;;;;;;;32.92;16.38;;;;;;;4.89;90.37;93637.72;5131913;27;20253;-74
2021/12/06 06:16:06;;;;;;;30.58;14.75;;;;;;;5.08;90.17;93645.41;5145921;27;20213;-74
2021/12/06 06:18:32;;;;;;;26.15;13.23;;;;;;;5.15;88.74;93635.00;5143267;27;20741;-75
2021/12/06 06:21:01;;;;;;;30.25;14.65;;;;;;;5.24;88.21;93611.59;5134365;27;20600;-74
2021/12/06 06:23:28;;;;;;;37.05;15.13;;;;;;;5.25;88.41;93592.50;5131392;27;20605;-74
2021/12/06 06:25:56;;;;;;;47.17;21.20;;;;;;;5.59;87.46;93617.69;5131809;27;20239;-74
2021/12/06 06:28:23;;;;;;;29.90;14.32;;;;;;;6.07;86.80;93633.50;5131485;27;20232;-74
2021/12/06 06:30:52;;;;;;;36.70;16.52;;;;;;;6.12;84.84;93644.06;5136911;27;20226;-74
2021/12/06 06:33:19;;;;;;;26.73;13.85;;;;;;;6.29;84.94;93656.63;5126876;27;20262;-74
2021/12/06 06:35:46;;;;;;;33.03;15.57;;;;;;;6.44;85.33;93642.63;5128761;27;20221;-74
2021/12/06 06:38:14;;;;;;;31.55;17.17;;;;;;;6.91;84.57;93661.31;5130856;27;20646;-74
2021/12/06 06:40:41;;;;;;;29.50;13.35;;;;;;;6.93;82.24;93651.81;5130610;27;20699;-74
2021/12/06 06:43:08;;;;;;;33.22;14.15;;;;;;;7.31;82.20;93665.13;5130779;27;20474;-74
2021/12/06 06:45:37;;;;;;;32.47;13.10;;;;;;;7.51;81.46;93654.66;5131200;27;20232;-73
2021/12/06 06:48:07;;;;;;;27.80;13.77;;;;;;;7.71;81.27;93635.72;5131125;27;20203;-75
2021/12/06 06:50:34;;;;;;;28.02;13.88;;;;;;;7.71;82.37;93646.50;5139587;27;20203;-73
2021/12/06 06:53:01;;;;;;;25.58;12.13;;;;;;;8.10;80.37;93649.72;5121197;27;20205;-73
2021/12/06 06:55:31;;;;;;;26.27;13.57;;;;;;;8.05;80.60;93663.44;5110270;28;20656;-73
2021/12/06 06:57:58;;;;;;;28.10;12.20;;;;;;;7.65;81.74;93669.41;5121085;27;20208;-74
2021/12/06 07:00:28;;;;;;;27.98;14.65;;;;;;;7.94;80.79;93670.34;5131293;27;20233;-74
2021/12/06 07:02:54;;;;;;;30.65;15.82;;;;;;;7.59;80.81;93676.13;5133702;27;20250;-73
2021/12/06 07:05:21;;;;;;;23.45;11.90;;;;;;;7.32;80.97;93655.13;5133174;27;20592;-73
2021/12/06 07:07:49;;;;;;;28.08;14.05;;;;;;;7.74;81.24;93651.22;5110371;28;20664;-73
2021/12/06 07:10:16;;;;;;;19.45;10.15;;;;;;;7.60;79.66;93650.75;5119717;28;20724;-74
2021/12/06 07:12:46;;;;;;;23.63;12.00;;;;;;;7.84;81.57;93650.78;5131028;27;20200;-73
2021/12/06 07:15:16;;;;;;;21.77;11.80;;;;;;;8.10;80.04;93647.00;5130541;27;20228;-73
2021/12/06 07:17:44;;;;;;;20.63;11.05;;;;;;;8.07;78.43;93631.50;5130803;27;20262;-75
2021/12/06 07:20:13;;;;;;;25.05;14.07;;;;;;;7.69;79.90;93637.16;5131368;27;20204;-73
2021/12/06 07:22:40;;;;;;;23.52;14.75;;;;;;;7.57;80.19;93629.06;5131746;27;20204;-75
2021/12/06 07:25:09;;;;;;;18.15;9.55;;;;;;;7.26;79.97;93637.59;5134940;27;20233;-76
2021/12/06 07:27:36;;;;;;;23.52;13.68;;;;;;;7.04;80.71;93644.91;5140176;27;20207;-74
2021/12/06 07:30:07;;;;;;;18.45;8.48;;;;;;;6.84;81.88;93651.06;5130911;27;20270;-74
2021/12/06 07:32:34;;;;;;;18.23;10.07;;;;;;;6.74;82.81;93636.09;5114355;28;20258;-75
2021/12/06 07:35:02;;;;;;;20.27;11.77;;;;;;;6.71;82.12;93646.72;5126051;27;20245;-74
2021/12/06 07:37:29;;;;;;;22.63;12.93;;;;;;;6.81;82.40;93659.03;5134793;27;20224;-75
2021/12/06 07:39:56;;;;;;;22.00;12.75;;;;;;;6.64;82.57;93665.31;5133941;27;20718;-76
2021/12/06 07:42:23;;;;;;;17.65;9.55;;;;;;;6.83;83.55;93670.25;5135257;27;20197;-73
2021/12/06 07:44:50;;;;;;;21.58;9.63;;;;;;;7.04;82.50;93669.13;5134276;27;20700;-74
2021/12/06 07:47:18;;;;;;;15.55;8.90;;;;;;;7.35;81.38;93659.88;5134889;27;20250;-73
2021/12/06 07:49:46;;;;;;;19.73;11.52;;;;;;;7.40;79.89;93635.41;5134629;27;20201;-73
2021/12/06 07:52:13;;;;;;;13.27;7.95;;;;;;;7.23;81.70;93662.50;5134657;27;20791;-73
2021/12/06 07:54:40;;;;;;;16.95;8.32;;;;;;;7.45;81.31;93670.22;5134490;27;20201;-74
2021/12/06 07:57:08;;;;;;;17.00;8.93;;;;;;;7.52;82.20;93656.97;5134453;27;20212;-74
2021/12/06 07:59:37;;;;;;;11.38;6.28;;;;;;;7.08;79.67;93642.34;5114771;27;20216;-75
2021/12/06 08:02:05;;;;;;;11.38;7.05;;;;;;;6.99;80.70;93626.25;5134004;27;20216;-74
2021/12/06 08:04:34;;;;;;;15.85;7.57;;;;;;;6.77;82.17;93634.66;5135912;27;20261;-74
2021/12/06 08:07:01;;;;;;;13.95;7.30;;;;;;;6.84;82.48;93643.00;5136379;27;20229;-74
2021/12/06 08:09:28;;;;;;;13.50;6.50;;;;;;;6.75;82.43;93644.97;5113374;28;20210;-74
2021/12/06 08:11:55;;;;;;;15.68;7.45;;;;;;;6.79;82.47;93648.59;5123353;27;20238;-74
2021/12/06 08:14:24;;;;;;;13.05;6.53;;;;;;;6.91;83.04;93655.94;5134157;27;20651;-74
2021/12/06 08:16:51;;;;;;;12.95;6.95;;;;;;;6.80;82.66;93650.16;5133174;27;20427;-73
2021/12/06 08:19:18;;;;;;;12.93;6.22;;;;;;;6.69;82.88;93643.59;5133939;27;20201;-74
2021/12/06 08:21:46;;;;;;;12.90;6.50;;;;;;;6.76;83.20;93652.72;5133790;27;20653;-74
2021/12/06 08:24:14;;;;;;;10.23;6.03;;;;;;;6.82;82.55;93652.53;5134153;27;20205;-74
2021/12/06 08:26:42;;;;;;;11.93;7.35;;;;;;;6.91;83.11;93656.72;5133813;27;20233;-74
2021/12/06 08:29:12;;;;;;;13.75;7.10;;;;;;;7.01;83.47;93647.47;5133523;27;20655;-74
2021/12/06 08:31:41;;;;;;;16.70;8.13;;;;;;;7.20;83.45;93634.31;5133562;27;20604;-74
2021/12/06 08:34:09;;;;;;;13.45;7.20;;;;;;;7.36;81.94;93639.88;5134259;27;20685;-74
2021/12/06 08:36:35;;;;;;;15.50;8.40;;;;;;;7.64;82.61;93640.09;5133912;27;20258;-75
2021/12/06 08:39:05;;;;;;;15.57;7.82;;;;;;;7.85;80.33;93641.59;5134050;27;20213;-75
2021/12/06 08:41:33;;;;;;;14.85;7.80;;;;;;;7.69;80.17;93643.34;5133295;27;20241;-75
2021/12/06 08:44:02;;;;;;;17.67;7.90;;;;;;;7.45;81.49;93629.81;5133289;27;20700;-76
2021/12/06 08:46:31;;;;;;;22.55;9.48;;;;;;;7.57;81.81;93616.38;5133459;27;20341;-75
2021/12/06 08:49:00;;;;;;;13.32;7.30;;;;;;;7.56;80.56;93633.66;5120356;27;20205;-75
2021/12/06 08:51:30;;;;;;;12.27;7.13;;;;;;;7.63;81.66;93631.22;5133333;27;20244;-75
2021/12/06 08:54:00;;;;;;;15.82;7.53;;;;;;;7.85;80.97;93619.22;5133543;27;20193;-75
2021/12/06 08:56:29;;;;;;;11.65;5.95;;;;;;;8.01;79.91;93616.66;5133712;27;20254;-75
2021/12/06 08:58:58;;;;;;;15.35;6.65;;;;;;;7.95;79.77;93621.47;5132797;27;20257;-74
2021/12/06 09:01:26;;;;;;;11.48;6.45;;;;;;;8.07;77.89;93631.50;5124277;27;20204;-74
2021/12/06 09:03:53;;;;;;;10.48;5.45;;;;;;;7.96;78.17;93636.53;5131021;27;20200;-74
2021/12/06 09:06:21;;;;;;;11.52;5.90;;;;;;;7.92;78.33;93642.97;5131302;27;20217;-74
2021/12/06 09:08:48;;;;;;;13.43;6.28;;;;;;;8.24;78.44;93625.09;5132093;27;20674;-74
2021/12/06 09:11:15;;;;;;;12.95;5.72;;;;;;;8.61;76.87;93615.13;5136819;27;20204;-74
2021/12/06 09:13:44;;;;;;;17.33;9.73;;;;;;;8.47;76.82;93610.84;5130412;27;20238;-75
2021/12/06 09:16:11;;;;;;;16.80;9.43;;;;;;;8.68;76.22;93601.81;5134941;27;20245;-74
2021/12/06 09:18:40;;;;;;;11.05;6.22;;;;;;;8.98;77.68;93594.22;5133959;27;20200;-74
2021/12/06 09:21:12;;;;;;;11.85;7.32;;;;;;;9.15;74.82;93599.34;5122606;27;20647;-76
2021/12/06 09:23:40;;;;;;;11.90;7.07;;;;;;;8.99;74.49;93604.69;5131048;27;20647;-76
2021/12/06 09:26:07;;;;;;;13.05;8.00;;;;;;;9.50;75.48;93600.31;5125877;27;20704;-74
2021/12/06 09:28:35;;;;;;;13.30;7.97;;;;;;;9.45;72.70;93581.63;5126382;27;20205;-75
2021/12/06 09:31:05;;;;;;;14.50;7.95;;;;;;;9.73;74.41;93581.59;5126134;27;20212;-75
2021/12/06 09:33:33;;;;;;;12.60;8.00;;;;;;;9.79;70.70;93588.31;5120034;27;20304;-75
2021/12/06 09:36:00;;;;;;;12.35;8.25;;;;;;;9.77;72.39;93587.88;5124097;27;20278;-75
2021/12/06 09:38:34;;;;;;;12.68;7.70;;;;;;;9.73;72.40;93581.59;5123492;27;20208;-75
2021/12/06 09:41:02;;;;;;;11.93;7.47;;;;;;;9.48;72.82;93582.84;5132113;27;20317;-74
2021/12/06 09:43:29;;;;;;;11.02;7.70;;;;;;;9.11;75.22;93583.03;5143612;27;20227;-74
2021/12/06 09:45:56;;;;;;;12.30;7.38;;;;;;;9.20;74.49;93580.97;5120509;27;20221;-75
2021/12/06 09:48:24;;;;;;;13.27;8.52;;;;;;;9.10;74.74;93591.47;5132199;27;20205;-73
2021/12/06 09:50:57;;;;;;;11.57;7.85;;;;;;;9.16;74.12;93593.56;5122320;27;20205;-73
2021/12/06 09:53:28;;;;;;;12.95;8.40;;;;;;;8.99;74.44;93572.28;5111419;28;20695;-73
2021/12/06 09:56:00;;;;;;;13.32;7.53;;;;;;;8.84;74.75;93564.91;5123368;27;20200;-73
2021/12/06 09:58:30;;;;;;;11.05;7.55;;;;;;;8.88;74.28;93565.78;5131880;27;20193;-73
2021/12/06 10:01:01;;;;;;;12.63;7.35;;;;;;;8.87;74.72;93558.81;5131891;27;20265;-73
2021/12/06 10:03:30;;;;;;;13.20;7.88;;;;;;;8.75;74.76;93558.81;5132213;27;20200;-74
2021/12/06 10:06:02;;;;;;;12.93;8.02;;;;;;;8.80;74.44;93551.28;5131961;27;20235;-74
2021/12/06 10:08:35;;;;;;;11.00;7.28;;;;;;;8.85;74.62;93558.38;5139173;27;20184;-73
2021/12/06 10:11:03;;;;;;;11.23;7.80;;;;;;;8.81;74.05;93541.28;5125961;27;20261;-74
2021/12/06 10:13:30;;;;;;;10.57;7.13;;;;;;;8.71;74.32;93533.66;5131931;27;20258;-74
2021/12/06 10:15:59;;;;;;;12.50;6.88;;;;;;;8.48;75.52;93533.38;5131486;27;20229;-74
2021/12/06 10:18:26;;;;;;;10.35;6.55;;;;;;;8.38;75.47;93507.66;5131694;27;20224;-74
2021/12/06 10:20:54;;;;;;;12.45;7.43;;;;;;;8.55;74.51;93512.78;5131728;27;20209;-74
2021/12/06 10:23:22;;;;;;;12.10;7.22;;;;;;;8.67;74.96;93508.47;5131730;27;20610;-75
2021/12/06 10:25:52;;;;;;;13.80;6.82;;;;;;;8.82;74.15;93511.22;5135180;27;20563;-74
2021/12/06 10:28:23;;;;;;;10.27;7.18;;;;;;;8.93;74.42;93511.53;5130816;27;20205;-74
2021/12/06 10:30:54;;;;;;;9.68;6.55;;;;;;;8.73;75.06;93497.09;5110245;28;20541;-74
2021/12/06 10:33:24;;;;;;;13.07;8.40;;;;;;;8.67;75.55;93508.47;5111349;28;20202;-73
2021/12/06 10:35:56;;;;;;;12.77;7.82;;;;;;;8.52;76.56;93480.28;5130113;27;20225;-74
2021/12/06 10:38:24;;;;;;;12.88;7.97;;;;;;;8.49;76.07;93492.56;5131633;27;20585;-74
2021/12/06 10:40:57;;;;;;;12.90;8.27;;;;;;;8.59;75.51;93487.81;5131376;27;20251;-74
2021/12/06 10:43:24;;;;;;;19.27;9.05;;;;;;;8.92;75.23;93482.94;5132058;27;20246;-75
2021/12/06 10:45:52;;;;;;;16.48;8.95;;;;;;;9.38;74.68;93483.38;5131352;27;20212;-74
2021/12/06 10:48:21;;;;;;;15.05;9.07;;;;;;;9.24;73.54;93489.19;5131175;27;20209;-75
2021/12/06 10:50:59;;;;;;;14.00;8.48;;;;;;;9.24;73.25;93492.69;5131083;27;20205;-74
2021/12/06 10:53:28;;;;;;;12.15;7.57;;;;;;;9.30;73.19;93481.59;5131663;27;20200;-75
2021/12/06 10:55:57;;;;;;;12.60;8.30;;;;;;;9.65;72.50;93487.91;5131311;27;20201;-75
2021/12/06 10:58:27;;;;;;;13.35;7.43;;;;;;;9.90;71.91;93489.28;5135175;27;20228;-74
2021/12/06 11:00:57;;;;;;;14.02;8.43;;;;;;;9.74;71.18;93479.63;5135909;27;20264;-74
2021/12/06 11:03:27;;;;;;;12.52;8.05;;;;;;;9.84;70.46;93479.84;5135339;27;20246;-74
2021/12/06 11:05:58;;;;;;;12.18;7.78;;;;;;;9.84;70.74;93498.78;5135607;27;20201;-74
2021/12/06 11:08:27;;;;;;;11.48;7.43;;;;;;;9.99;70.62;93508.81;5135359;27;20603;-74
2021/12/06 11:10:57;;;;;;;12.90;7.70;;;;;;;9.59;70.99;93510.91;5135747;27;20204;-74
2021/12/06 11:13:27;;;;;;;13.07;7.68;;;;;;;9.08;72.54;93502.69;5135993;27;20193;-73
2021/12/06 11:16:01;;;;;;;14.13;7.80;;;;;;;9.27;72.91;93505.50;5135261;27;20647;-74
2021/12/06 11:18:51;;;;;;;15.98;7.90;;;;;;;9.13;72.82;93494.31;5145630;27;20236;-74
2021/12/06 11:21:28;;;;;;;14.07;8.10;;;;;;;9.33;72.88;93497.13;5138003;27;20201;-73
2021/12/06 11:24:06;;;;;;;12.90;9.02;;;;;;;9.52;72.38;93505.34;5114498;28;20205;-73
2021/12/06 11:26:36;;;;;;;15.38;9.00;;;;;;;9.54;73.08;93486.88;5134909;27;20280;-74
2021/12/06 11:29:09;;;;;;;15.02;9.05;;;;;;;9.35;73.29;93479.44;5138256;27;20253;-74
2021/12/06 11:31:38;;;;;;;16.77;10.02;;;;;;;9.45;73.35;93489.72;5135278;27;20193;-74
2021/12/06 11:34:07;;;;;;;15.60;9.55;;;;;;;9.49;72.90;93500.63;5146864;27;20246;-74
2021/12/06 11:36:35;;;;;;;15.77;9.43;;;;;;;9.68;73.02;93497.25;5134776;27;20228;-74
2021/12/06 11:39:06;;;;;;;14.13;9.43;;;;;;;9.55;73.12;93478.41;5135056;27;20256;-73
2021/12/06 11:41:34;;;;;;;17.02;10.07;;;;;;;9.38;73.53;93469.84;5134826;27;20293;-74